sensor_id;sensor_type;location;lat;lon;timestamp;pressure;altitude;pressure_sealevel;temperature;humidity
47154;BME280;32907;41.412;2.164;2023-03-04T00:01:30;100882.84;;;16.78;36.51
47154;BME280;32907;41.412;2.164;2023-03-04T00:03:58;100938.06;;;17.15;36.31
47154;BME280;32907;41.412;2.164;2023-03-04T00:06:26;100939.66;;;17.11;36.37
47154;BME280;32907;41.412;2.164;2023-03-04T00:08:54;100954.91;;;17.22;36.49
47154;BME280;32907;41.412;2.164;2023-03-04T00:11:22;100726.22;;;15.81;36.79
47154;BME280;32907;41.412;2.164;2023-03-04T00:13:50;100931.53;;;17.11;36.68
47154;BME280;32907;41.412;2.164;2023-03-04T00:16:18;100944.53;;;17.09;36.59
47154;BME280;32907;41.412;2.164;2023-03-04T00:18:46;100955.44;;;17.19;36.59
47154;BME280;32907;41.412;2.164;2023-03-04T00:21:14;100966.56;;;17.22;36.43
47154;BME280;32907;41.412;2.164;2023-03-04T00:23:42;100961.94;;;17.23;36.54
47154;BME280;32907;41.412;2.164;2023-03-04T00:26:10;100944.97;;;16.95;36.70
47154;BME280;32907;41.412;2.164;2023-03-04T00:28:41;100934.44;;;16.99;36.19
47154;BME280;32907;41.412;2.164;2023-03-04T00:31:09;100908.03;;;16.84;36.25
47154;BME280;32907;41.412;2.164;2023-03-04T00:33:37;100964.13;;;17.21;36.19
47154;BME280;32907;41.412;2.164;2023-03-04T00:36:05;100959.78;;;17.20;36.19
47154;BME280;32907;41.412;2.164;2023-03-04T00:38:33;100963.53;;;17.14;36.29
47154;BME280;32907;41.412;2.164;2023-03-04T00:41:03;100964.34;;;17.14;36.24
47154;BME280;32907;41.412;2.164;2023-03-04T00:43:31;100873.13;;;16.50;36.15
47154;BME280;32907;41.412;2.164;2023-03-04T00:45:59;100916.41;;;16.77;35.98
47154;BME280;32907;41.412;2.164;2023-03-04T00:48:29;100969.75;;;17.09;35.91
47154;BME280;32907;41.412;2.164;2023-03-04T00:50:57;100894.44;;;16.69;36.17
47154;BME280;32907;41.412;2.164;2023-03-04T00:53:25;100909.88;;;16.73;36.11
47154;BME280;32907;41.412;2.164;2023-03-04T00:55:52;100934.66;;;16.92;36.13
47154;BME280;32907;41.412;2.164;2023-03-04T00:58:20;100919.41;;;16.81;36.50
47154;BME280;32907;41.412;2.164;2023-03-04T01:00:48;100889.16;;;16.57;36.06
47154;BME280;32907;41.412;2.164;2023-03-04T01:03:18;100877.78;;;16.60;35.82
47154;BME280;32907;41.412;2.164;2023-03-04T01:05:45;100948.03;;;17.04;35.92
47154;BME280;32907;41.412;2.164;2023-03-04T01:08:13;100951.88;;;17.13;35.96
47154;BME280;32907;41.412;2.164;2023-03-04T01:10:42;100912.16;;;16.87;35.41
47154;BME280;32907;41.412;2.164;2023-03-04T01:13:10;100926.88;;;17.01;35.50
47154;BME280;32907;41.412;2.164;2023-03-04T01:15:38;100922.28;;;17.01;35.03
47154;BME280;32907;41.412;2.164;2023-03-04T01:18:06;100939.94;;;17.14;35.21
47154;BME280;32907;41.412;2.164;2023-03-04T01:20:34;100891.84;;;16.89;35.04
47154;BME280;32907;41.412;2.164;2023-03-04T01:23:02;100922.00;;;17.03;34.49
47154;BME280;32907;41.412;2.164;2023-03-04T01:25:30;100907.00;;;16.85;34.21
47154;BME280;32907;41.412;2.164;2023-03-04T01:27:58;100925.47;;;16.93;33.92
47154;BME280;32907;41.412;2.164;2023-03-04T01:30:26;100866.94;;;16.60;34.23
47154;BME280;32907;41.412;2.164;2023-03-04T01:32:56;100924.66;;;16.93;33.45
47154;BME280;32907;41.412;2.164;2023-03-04T01:35:26;100857.41;;;16.47;33.92
47154;BME280;32907;41.412;2.164;2023-03-04T01:37:56;100912.91;;;16.82;33.61
47154;BME280;32907;41.412;2.164;2023-03-04T01:40:24;100862.88;;;16.53;33.84
47154;BME280;32907;41.412;2.164;2023-03-04T01:42:54;100911.34;;;16.86;33.35
47154;BME280;32907;41.412;2.164;2023-03-04T01:45:21;100871.28;;;16.56;33.48
47154;BME280;32907;41.412;2.164;2023-03-04T01:47:50;100896.59;;;16.72;33.17
47154;BME280;32907;41.412;2.164;2023-03-04T01:50:26;100903.22;;;16.86;32.86
47154;BME280;32907;41.412;2.164;2023-03-04T01:52:54;100881.69;;;16.69;33.41
47154;BME280;32907;41.412;2.164;2023-03-04T01:55:23;100908.91;;;16.90;33.05
47154;BME280;32907;41.412;2.164;2023-03-04T01:57:52;100900.16;;;16.77;32.96
47154;BME280;32907;41.412;2.164;2023-03-04T02:00:24;100909.66;;;16.80;32.99
47154;BME280;32907;41.412;2.164;2023-03-04T02:03:02;100902.63;;;16.79;32.87
47154;BME280;32907;41.412;2.164;2023-03-04T02:05:31;100879.19;;;16.63;33.16
47154;BME280;32907;41.412;2.164;2023-03-04T02:07:59;100831.91;;;16.38;33.01
47154;BME280;32907;41.412;2.164;2023-03-04T02:10:28;100822.56;;;16.24;32.97
47154;BME280;32907;41.412;2.164;2023-03-04T02:12:57;100899.38;;;16.82;32.73
47154;BME280;32907;41.412;2.164;2023-03-04T02:15:30;100897.47;;;16.83;33.04
47154;BME280;32907;41.412;2.164;2023-03-04T02:17:59;100796.06;;;16.26;32.96
47154;BME280;32907;41.412;2.164;2023-03-04T02:26:08;100815.06;;;16.31;32.88
47154;BME280;32907;41.412;2.164;2023-03-04T02:28:36;100827.78;;;16.36;32.94
47154;BME280;32907;41.412;2.164;2023-03-04T02:31:04;100837.59;;;16.42;32.82
47154;BME280;32907;41.412;2.164;2023-03-04T02:33:32;100886.31;;;16.69;32.77
47154;BME280;32907;41.412;2.164;2023-03-04T02:36:02;100845.22;;;16.50;32.84
47154;BME280;32907;41.412;2.164;2023-03-04T02:38:29;100866.81;;;16.72;32.93
47154;BME280;32907;41.412;2.164;2023-03-04T02:40:59;100868.50;;;16.78;32.85
47154;BME280;32907;41.412;2.164;2023-03-04T02:43:27;100819.50;;;16.47;32.51
47154;BME280;32907;41.412;2.164;2023-03-04T02:45:55;100823.78;;;16.43;32.65
47154;BME280;32907;41.412;2.164;2023-03-04T02:48:23;100864.56;;;16.64;32.67
47154;BME280;32907;41.412;2.164;2023-03-04T02:50:52;100846.63;;;16.53;32.80
47154;BME280;32907;41.412;2.164;2023-03-04T02:53:20;100852.88;;;16.58;32.56
47154;BME280;32907;41.412;2.164;2023-03-04T02:55:49;100847.78;;;16.62;32.57
47154;BME280;32907;41.412;2.164;2023-03-04T02:58:19;100826.84;;;16.52;32.63
47154;BME280;32907;41.412;2.164;2023-03-04T03:00:47;100806.41;;;16.34;32.71
47154;BME280;32907;41.412;2.164;2023-03-04T03:03:15;100795.56;;;16.29;32.71
47154;BME280;32907;41.412;2.164;2023-03-04T03:05:43;100843.91;;;16.53;32.56
47154;BME280;32907;41.412;2.164;2023-03-04T03:08:12;100809.13;;;16.34;32.76
47154;BME280;32907;41.412;2.164;2023-03-04T03:10:40;100819.44;;;16.37;32.55
47154;BME280;32907;41.412;2.164;2023-03-04T03:13:08;100771.13;;;16.19;32.56
47154;BME280;32907;41.412;2.164;2023-03-04T03:15:37;100824.91;;;16.47;32.50
47154;BME280;32907;41.412;2.164;2023-03-04T03:18:11;100842.34;;;16.62;32.83
47154;BME280;32907;41.412;2.164;2023-03-04T03:20:41;100820.06;;;16.49;32.76
47154;BME280;32907;41.412;2.164;2023-03-04T03:23:09;100786.53;;;16.18;32.75
47154;BME280;32907;41.412;2.164;2023-03-04T03:25:37;100803.41;;;16.31;32.55
47154;BME280;32907;41.412;2.164;2023-03-04T03:28:05;100829.78;;;16.45;32.78
47154;BME280;32907;41.412;2.164;2023-03-04T03:30:33;100857.69;;;16.51;32.74
47154;BME280;32907;41.412;2.164;2023-03-04T03:33:03;100836.34;;;16.55;32.92
47154;BME280;32907;41.412;2.164;2023-03-04T03:35:31;100845.22;;;16.50;32.73
47154;BME280;32907;41.412;2.164;2023-03-04T03:37:58;100813.94;;;16.27;32.64
47154;BME280;32907;41.412;2.164;2023-03-04T03:40:26;100761.47;;;15.96;32.80
47154;BME280;32907;41.412;2.164;2023-03-04T03:42:54;100817.22;;;16.29;32.46
47154;BME280;32907;41.412;2.164;2023-03-04T03:45:22;100841.91;;;16.38;32.51
47154;BME280;32907;41.412;2.164;2023-03-04T03:47:50;100839.97;;;16.33;32.53
47154;BME280;32907;41.412;2.164;2023-03-04T03:50:18;100840.22;;;16.32;32.81
47154;BME280;32907;41.412;2.164;2023-03-04T03:52:46;100790.50;;;16.06;32.77
47154;BME280;32907;41.412;2.164;2023-03-04T03:55:13;100803.25;;;16.10;32.70
47154;BME280;32907;41.412;2.164;2023-03-04T03:57:41;100782.56;;;15.94;32.79
47154;BME280;32907;41.412;2.164;2023-03-04T04:00:10;100827.38;;;16.17;32.63
47154;BME280;32907;41.412;2.164;2023-03-04T04:02:41;100829.63;;;16.25;32.77
47154;BME280;32907;41.412;2.164;2023-03-04T04:05:10;100840.38;;;16.20;33.13
47154;BME280;32907;41.412;2.164;2023-03-04T04:07:39;100842.28;;;16.19;32.97
47154;BME280;32907;41.412;2.164;2023-03-04T04:10:09;100812.31;;;15.94;32.63
47154;BME280;32907;41.412;2.164;2023-03-04T04:12:37;100794.91;;;15.85;32.60
47154;BME280;32907;41.412;2.164;2023-03-04T04:15:06;100812.00;;;15.90;32.87
47154;BME280;32907;41.412;2.164;2023-03-04T04:17:34;100740.22;;;15.51;32.92
47154;BME280;32907;41.412;2.164;2023-03-04T04:20:02;100767.25;;;15.73;32.91
47154;BME280;32907;41.412;2.164;2023-03-04T04:22:30;100820.81;;;16.08;32.86
47154;BME280;32907;41.412;2.164;2023-03-04T04:24:58;100839.34;;;16.21;32.80
47154;BME280;32907;41.412;2.164;2023-03-04T04:27:26;100841.53;;;16.24;32.55
47154;BME280;32907;41.412;2.164;2023-03-04T04:29:54;100842.34;;;16.25;32.76
47154;BME280;32907;41.412;2.164;2023-03-04T04:32:22;100805.00;;;15.94;32.33
47154;BME280;32907;41.412;2.164;2023-03-04T04:34:49;100834.41;;;16.13;32.70
47154;BME280;32907;41.412;2.164;2023-03-04T04:37:17;100830.88;;;16.12;32.85
47154;BME280;32907;41.412;2.164;2023-03-04T04:39:45;100854.28;;;16.29;32.70
47154;BME280;32907;41.412;2.164;2023-03-04T04:42:13;100851.06;;;16.32;32.58
47154;BME280;32907;41.412;2.164;2023-03-04T04:44:42;100843.16;;;16.25;32.34
47154;BME280;32907;41.412;2.164;2023-03-04T04:47:10;100851.00;;;16.27;32.44
47154;BME280;32907;41.412;2.164;2023-03-04T04:49:38;100844.28;;;16.29;32.15
47154;BME280;32907;41.412;2.164;2023-03-04T04:52:06;100852.41;;;16.34;32.32
47154;BME280;32907;41.412;2.164;2023-03-04T04:54:34;100843.75;;;16.32;32.69
47154;BME280;32907;41.412;2.164;2023-03-04T04:57:02;100805.41;;;16.08;32.52
47154;BME280;32907;41.412;2.164;2023-03-04T04:59:30;100656.09;;;15.15;32.51
47154;BME280;32907;41.412;2.164;2023-03-04T05:01:58;100754.91;;;15.87;32.53
47154;BME280;32907;41.412;2.164;2023-03-04T05:04:26;100844.41;;;16.44;32.30
47154;BME280;32907;41.412;2.164;2023-03-04T05:06:54;100823.19;;;16.31;32.07
47154;BME280;32907;41.412;2.164;2023-03-04T05:09:22;100812.31;;;16.26;32.19
47154;BME280;32907;41.412;2.164;2023-03-04T05:11:49;100862.59;;;16.54;32.37
47154;BME280;32907;41.412;2.164;2023-03-04T05:14:18;100851.69;;;16.44;32.06
47154;BME280;32907;41.412;2.164;2023-03-04T05:16:46;100763.84;;;15.87;32.00
47154;BME280;32907;41.412;2.164;2023-03-04T05:19:14;100869.31;;;16.51;32.26
47154;BME280;32907;41.412;2.164;2023-03-04T05:21:42;100869.03;;;16.48;32.24
47154;BME280;32907;41.412;2.164;2023-03-04T05:24:11;100866.59;;;16.46;32.05
47154;BME280;32907;41.412;2.164;2023-03-04T05:26:39;100865.47;;;16.42;32.35
47154;BME280;32907;41.412;2.164;2023-03-04T05:29:07;100866.88;;;16.50;32.01
47154;BME280;32907;41.412;2.164;2023-03-04T05:31:35;100857.34;;;16.42;32.07
47154;BME280;32907;41.412;2.164;2023-03-04T05:34:02;100838.16;;;16.12;31.97
47154;BME280;32907;41.412;2.164;2023-03-04T05:36:30;100866.97;;;16.28;32.37
47154;BME280;32907;41.412;2.164;2023-03-04T05:38:58;100858.00;;;16.22;32.09
47154;BME280;32907;41.412;2.164;2023-03-04T05:41:26;100798.91;;;15.77;32.29
47154;BME280;32907;41.412;2.164;2023-03-04T05:43:55;100895.16;;;16.32;32.18
47154;BME280;32907;41.412;2.164;2023-03-04T05:46:23;100887.34;;;16.36;32.33
47154;BME280;32907;41.412;2.164;2023-03-04T05:48:52;100843.56;;;16.12;32.54
47154;BME280;32907;41.412;2.164;2023-03-04T05:51:21;100800.53;;;15.78;33.11
47154;BME280;32907;41.412;2.164;2023-03-04T05:53:50;100886.50;;;16.30;33.64
47154;BME280;32907;41.412;2.164;2023-03-04T05:56:19;100890.41;;;16.44;33.63
47154;BME280;32907;41.412;2.164;2023-03-04T05:58:47;100808.53;;;15.95;33.62
47154;BME280;32907;41.412;2.164;2023-03-04T06:01:15;100884.41;;;16.42;33.39
47154;BME280;32907;41.412;2.164;2023-03-04T06:03:43;100810.13;;;15.91;32.88
47154;BME280;32907;41.412;2.164;2023-03-04T06:06:11;100844.41;;;16.12;32.69
47154;BME280;32907;41.412;2.164;2023-03-04T06:08:40;100903.94;;;16.44;33.20
47154;BME280;32907;41.412;2.164;2023-03-04T06:11:08;100902.59;;;16.47;33.72
47154;BME280;32907;41.412;2.164;2023-03-04T06:13:36;100888.06;;;16.26;33.51
47154;BME280;32907;41.412;2.164;2023-03-04T06:16:05;100907.47;;;16.45;33.30
47154;BME280;32907;41.412;2.164;2023-03-04T06:18:34;100869.09;;;16.21;32.79
47154;BME280;32907;41.412;2.164;2023-03-04T06:21:03;100897.94;;;16.42;33.04
47154;BME280;32907;41.412;2.164;2023-03-04T06:23:31;100903.88;;;16.39;32.86
47154;BME280;32907;41.412;2.164;2023-03-04T06:25:59;100882.19;;;16.34;33.06
47154;BME280;32907;41.412;2.164;2023-03-04T06:28:28;100904.75;;;16.45;32.47
47154;BME280;32907;41.412;2.164;2023-03-04T06:30:56;100909.91;;;16.46;32.64
47154;BME280;32907;41.412;2.164;2023-03-04T06:33:25;100890.50;;;16.28;32.47
47154;BME280;32907;41.412;2.164;2023-03-04T06:35:54;100838.50;;;15.88;32.72
47154;BME280;32907;41.412;2.164;2023-03-04T06:38:24;100925.84;;;16.43;32.54
47154;BME280;32907;41.412;2.164;2023-03-04T06:40:53;100932.28;;;16.37;32.78
47154;BME280;32907;41.412;2.164;2023-03-04T06:43:23;100890.13;;;16.14;33.25
47154;BME280;32907;41.412;2.164;2023-03-04T06:45:51;100915.66;;;16.23;33.65
47154;BME280;32907;41.412;2.164;2023-03-04T06:48:19;100942.84;;;16.38;33.62
47154;BME280;32907;41.412;2.164;2023-03-04T06:50:47;100943.69;;;16.44;33.67
47154;BME280;32907;41.412;2.164;2023-03-04T06:53:15;100894.22;;;16.16;33.40
47154;BME280;32907;41.412;2.164;2023-03-04T06:55:43;100849.09;;;15.68;33.40
47154;BME280;32907;41.412;2.164;2023-03-04T06:58:11;100936.28;;;16.29;33.64
47154;BME280;32907;41.412;2.164;2023-03-04T07:00:39;100939.47;;;16.26;33.56
47154;BME280;32907;41.412;2.164;2023-03-04T07:03:09;100947.41;;;16.33;34.07
47154;BME280;32907;41.412;2.164;2023-03-04T07:05:37;100930.13;;;16.12;34.27
47154;BME280;32907;41.412;2.164;2023-03-04T07:08:06;100911.19;;;16.12;34.72
47154;BME280;32907;41.412;2.164;2023-03-04T07:10:34;100906.25;;;16.04;34.76
47154;BME280;32907;41.412;2.164;2023-03-04T07:13:02;100971.63;;;16.44;35.57
47154;BME280;32907;41.412;2.164;2023-03-04T07:15:30;100974.34;;;16.49;34.80
47154;BME280;32907;41.412;2.164;2023-03-04T07:17:59;100942.72;;;16.23;33.36
47154;BME280;32907;41.412;2.164;2023-03-04T07:20:27;100950.31;;;16.26;33.30
47154;BME280;32907;41.412;2.164;2023-03-04T07:22:58;100920.91;;;16.08;33.49
47154;BME280;32907;41.412;2.164;2023-03-04T07:25:25;100977.84;;;16.45;33.37
47154;BME280;32907;41.412;2.164;2023-03-04T07:27:53;100949.50;;;16.26;33.08
47154;BME280;32907;41.412;2.164;2023-03-04T07:30:21;100945.44;;;16.28;33.25
47154;BME280;32907;41.412;2.164;2023-03-04T07:32:49;100983.03;;;16.51;32.86
47154;BME280;32907;41.412;2.164;2023-03-04T07:35:20;100940.00;;;16.23;32.77
47154;BME280;32907;41.412;2.164;2023-03-04T07:37:49;100965.31;;;16.39;32.86
47154;BME280;32907;41.412;2.164;2023-03-04T07:40:18;100984.16;;;16.56;33.34
47154;BME280;32907;41.412;2.164;2023-03-04T07:42:53;100977.41;;;16.58;33.28
47154;BME280;32907;41.412;2.164;2023-03-04T07:45:22;100968.78;;;16.61;33.38
47154;BME280;32907;41.412;2.164;2023-03-04T07:47:50;100986.41;;;16.64;33.51
47154;BME280;32907;41.412;2.164;2023-03-04T07:50:19;100981.53;;;16.66;33.28
47154;BME280;32907;41.412;2.164;2023-03-04T07:52:50;100938.28;;;16.44;33.17
47154;BME280;32907;41.412;2.164;2023-03-04T07:55:18;100945.66;;;16.48;33.13
47154;BME280;32907;41.412;2.164;2023-03-04T07:57:47;100956.78;;;16.52;33.05
47154;BME280;32907;41.412;2.164;2023-03-04T08:00:16;100980.00;;;16.70;33.36
47154;BME280;32907;41.412;2.164;2023-03-04T08:02:44;100965.75;;;16.58;33.30
47154;BME280;32907;41.412;2.164;2023-03-04T08:05:12;100974.59;;;16.75;32.74
47154;BME280;32907;41.412;2.164;2023-03-04T08:07:40;100975.84;;;16.67;32.44
47154;BME280;32907;41.412;2.164;2023-03-04T08:10:08;100898.81;;;16.16;32.69
47154;BME280;32907;41.412;2.164;2023-03-04T08:12:36;100952.41;;;16.46;32.65
47154;BME280;32907;41.412;2.164;2023-03-04T08:15:06;100998.47;;;16.78;32.43
47154;BME280;32907;41.412;2.164;2023-03-04T08:17:35;100884.94;;;16.07;32.01
47154;BME280;32907;41.412;2.164;2023-03-04T08:20:03;100999.56;;;16.77;32.21
47154;BME280;32907;41.412;2.164;2023-03-04T08:22:31;100960.06;;;16.54;32.22
47154;BME280;32907;41.412;2.164;2023-03-04T08:24:59;100923.78;;;16.23;32.16
47154;BME280;32907;41.412;2.164;2023-03-04T08:27:27;100984.69;;;16.53;32.54
47154;BME280;32907;41.412;2.164;2023-03-04T08:29:55;100981.25;;;16.35;32.33
47154;BME280;32907;41.412;2.164;2023-03-04T08:32:23;101008.59;;;16.61;32.31
47154;BME280;32907;41.412;2.164;2023-03-04T08:34:51;100967.22;;;16.38;32.70
47154;BME280;32907;41.412;2.164;2023-03-04T08:37:22;100967.25;;;16.43;32.89
47154;BME280;32907;41.412;2.164;2023-03-04T08:39:53;101002.66;;;16.64;32.56
47154;BME280;32907;41.412;2.164;2023-03-04T08:42:22;100974.25;;;16.39;32.72
47154;BME280;32907;41.412;2.164;2023-03-04T08:44:50;101011.53;;;16.59;32.86
47154;BME280;32907;41.412;2.164;2023-03-04T08:47:18;101006.38;;;16.58;32.58
47154;BME280;32907;41.412;2.164;2023-03-04T08:49:47;100987.88;;;16.49;32.65
47154;BME280;32907;41.412;2.164;2023-03-04T08:52:15;101004.84;;;16.67;32.92
47154;BME280;32907;41.412;2.164;2023-03-04T08:54:42;100954.25;;;16.40;32.69
47154;BME280;32907;41.412;2.164;2023-03-04T08:57:10;100920.44;;;16.16;32.82
47154;BME280;32907;41.412;2.164;2023-03-04T08:59:38;100994.19;;;16.60;32.89
47154;BME280;32907;41.412;2.164;2023-03-04T09:02:06;100971.69;;;16.55;32.96
47154;BME280;32907;41.412;2.164;2023-03-04T09:04:34;100955.13;;;16.51;33.05
47154;BME280;32907;41.412;2.164;2023-03-04T09:07:02;100904.22;;;16.16;33.06
47154;BME280;32907;41.412;2.164;2023-03-04T09:09:30;100950.53;;;16.51;32.63
47154;BME280;32907;41.412;2.164;2023-03-04T09:11:58;100961.97;;;16.59;32.27
47154;BME280;32907;41.412;2.164;2023-03-04T09:14:27;100977.06;;;16.76;32.59
47154;BME280;32907;41.412;2.164;2023-03-04T09:16:55;100946.25;;;16.56;32.26
47154;BME280;32907;41.412;2.164;2023-03-04T09:19:23;101002.13;;;16.94;32.74
47154;BME280;32907;41.412;2.164;2023-03-04T09:21:50;100967.63;;;16.84;32.63
47154;BME280;32907;41.412;2.164;2023-03-04T09:24:19;100980.16;;;16.90;32.04
47154;BME280;32907;41.412;2.164;2023-03-04T09:26:51;100992.25;;;17.15;37.31
47154;BME280;32907;41.412;2.164;2023-03-04T09:29:19;100939.50;;;16.90;34.80
47154;BME280;32907;41.412;2.164;2023-03-04T09:31:47;100995.09;;;17.35;37.13
47154;BME280;32907;41.412;2.164;2023-03-04T09:34:15;100956.56;;;17.28;36.05
47154;BME280;32907;41.412;2.164;2023-03-04T09:36:43;100962.31;;;17.37;37.03
47154;BME280;32907;41.412;2.164;2023-03-04T09:39:11;100982.78;;;17.59;34.60
47154;BME280;32907;41.412;2.164;2023-03-04T09:41:47;100967.50;;;17.48;33.24
47154;BME280;32907;41.412;2.164;2023-03-04T09:44:33;100978.44;;;17.63;33.72
47154;BME280;32907;41.412;2.164;2023-03-04T09:47:16;100976.84;;;17.68;33.75
47154;BME280;32907;41.412;2.164;2023-03-04T09:49:59;100984.97;;;17.68;33.14
47154;BME280;32907;41.412;2.164;2023-03-04T10:00:41;100979.44;;;18.00;36.35
47154;BME280;32907;41.412;2.164;2023-03-04T10:03:26;100967.78;;;17.99;36.11
47154;BME280;32907;41.412;2.164;2023-03-04T10:06:04;100975.09;;;18.04;34.64
47154;BME280;32907;41.412;2.164;2023-03-04T10:16:48;100969.38;;;17.95;33.68
47154;BME280;32907;41.412;2.164;2023-03-04T10:22:26;100961.00;;;17.97;36.35
47154;BME280;32907;41.412;2.164;2023-03-04T10:24:58;100966.97;;;18.04;35.98
47154;BME280;32907;41.412;2.164;2023-03-04T10:27:29;100954.75;;;18.01;35.64
47154;BME280;32907;41.412;2.164;2023-03-04T10:29:59;100951.47;;;17.94;35.88
47154;BME280;32907;41.412;2.164;2023-03-04T10:32:27;100947.16;;;17.98;38.42
47154;BME280;32907;41.412;2.164;2023-03-04T10:34:55;100778.38;;;16.93;36.44
47154;BME280;32907;41.412;2.164;2023-03-04T10:37:23;100942.81;;;17.97;36.33
47154;BME280;32907;41.412;2.164;2023-03-04T10:39:51;100948.81;;;18.09;39.42
47154;BME280;32907;41.412;2.164;2023-03-04T10:47:19;100939.28;;;18.02;36.81
47154;BME280;32907;41.412;2.164;2023-03-04T10:49:57;100971.09;;;18.27;38.37
47154;BME280;32907;41.412;2.164;2023-03-04T10:57:50;100949.94;;;18.24;36.78
47154;BME280;32907;41.412;2.164;2023-03-04T11:00:29;100943.97;;;18.22;36.17
47154;BME280;32907;41.412;2.164;2023-03-04T11:06:18;100961.06;;;18.42;34.68
47154;BME280;32907;41.412;2.164;2023-03-04T11:08:55;100964.06;;;18.41;34.20
47154;BME280;32907;41.412;2.164;2023-03-04T11:11:42;100960.28;;;18.37;34.42
47154;BME280;32907;41.412;2.164;2023-03-04T11:14:39;100931.19;;;18.17;35.96
47154;BME280;32907;41.412;2.164;2023-03-04T11:17:27;100935.81;;;18.22;36.53
47154;BME280;32907;41.412;2.164;2023-03-04T11:22:30;100930.91;;;18.18;35.44
47154;BME280;32907;41.412;2.164;2023-03-04T11:25:06;100913.53;;;18.09;35.41
47154;BME280;32907;41.412;2.164;2023-03-04T11:27:50;100938.25;;;18.28;35.52
47154;BME280;32907;41.412;2.164;2023-03-04T11:30:28;100949.41;;;18.32;35.41
47154;BME280;32907;41.412;2.164;2023-03-04T11:33:09;100912.72;;;18.14;34.80
47154;BME280;32907;41.412;2.164;2023-03-04T11:36:05;100924.41;;;18.25;35.30
47154;BME280;32907;41.412;2.164;2023-03-04T11:38:46;100913.53;;;18.20;35.20
47154;BME280;32907;41.412;2.164;2023-03-04T11:41:34;100922.22;;;18.27;34.37
47154;BME280;32907;41.412;2.164;2023-03-04T11:44:05;100914.34;;;18.15;34.64
47154;BME280;32907;41.412;2.164;2023-03-04T11:46:55;100871.13;;;17.88;33.95
47154;BME280;32907;41.412;2.164;2023-03-04T11:57:55;100920.88;;;18.14;33.76
47154;BME280;32907;41.412;2.164;2023-03-04T12:01:25;100889.59;;;17.96;33.24
47154;BME280;32907;41.412;2.164;2023-03-04T12:29:48;100823.41;;;18.02;34.76
47154;BME280;32907;41.412;2.164;2023-03-04T12:41:01;100840.25;;;18.20;36.26
47154;BME280;32907;41.412;2.164;2023-03-04T12:43:53;100829.66;;;18.18;36.04
47154;BME280;32907;41.412;2.164;2023-03-04T12:50:06;100809.84;;;18.02;36.19
47154;BME280;32907;41.412;2.164;2023-03-04T12:55:36;100770.78;;;17.83;35.99
47154;BME280;32907;41.412;2.164;2023-03-04T12:58:08;100799.00;;;18.07;36.19
47154;BME280;32907;41.412;2.164;2023-03-04T13:03:32;100812.03;;;18.26;35.86
47154;BME280;32907;41.412;2.164;2023-03-04T13:09:08;100798.97;;;18.28;36.08
47154;BME280;32907;41.412;2.164;2023-03-04T13:11:51;100802.25;;;18.30;36.43
47154;BME280;32907;41.412;2.164;2023-03-04T13:16:54;100786.50;;;18.27;35.54
47154;BME280;32907;41.412;2.164;2023-03-04T13:36:04;100762.06;;;18.32;34.67
47154;BME280;32907;41.412;2.164;2023-03-04T13:38:36;100772.94;;;18.32;34.80
47154;BME280;32907;41.412;2.164;2023-03-04T13:43:52;100732.78;;;18.13;33.60
47154;BME280;32907;41.412;2.164;2023-03-04T13:49:01;100754.75;;;18.27;33.59
47154;BME280;32907;41.412;2.164;2023-03-04T13:51:41;100725.72;;;18.12;33.68
47154;BME280;32907;41.412;2.164;2023-03-04T13:54:32;100689.38;;;17.93;34.29
47154;BME280;32907;41.412;2.164;2023-03-04T14:02:11;100744.13;;;18.41;34.43
47154;BME280;32907;41.412;2.164;2023-03-04T14:12:31;100709.13;;;18.39;33.85
47154;BME280;32907;41.412;2.164;2023-03-04T14:15:03;100714.81;;;18.43;34.06
47154;BME280;32907;41.412;2.164;2023-03-04T14:17:35;100699.63;;;18.27;33.89
47154;BME280;32907;41.412;2.164;2023-03-04T14:20:23;100727.53;;;18.58;34.16
47154;BME280;32907;41.412;2.164;2023-03-04T14:22:52;100706.66;;;18.48;34.14
47154;BME280;32907;41.412;2.164;2023-03-04T14:25:27;100708.56;;;18.48;33.74
47154;BME280;32907;41.412;2.164;2023-03-04T14:28:13;100716.94;;;18.51;33.88
47154;BME280;32907;41.412;2.164;2023-03-04T14:30:53;100724.00;;;18.52;33.65
47154;BME280;32907;41.412;2.164;2023-03-04T14:33:29;100719.13;;;18.49;33.55
47154;BME280;32907;41.412;2.164;2023-03-04T14:35:59;100706.41;;;18.34;34.02
47154;BME280;32907;41.412;2.164;2023-03-04T14:38:30;100713.47;;;18.45;34.04
47154;BME280;32907;41.412;2.164;2023-03-04T14:41:07;100709.38;;;18.43;33.72
47154;BME280;32907;41.412;2.164;2023-03-04T14:43:42;100699.88;;;18.40;33.88
47154;BME280;32907;41.412;2.164;2023-03-04T14:46:16;100713.69;;;18.49;34.16
47154;BME280;32907;41.412;2.164;2023-03-04T14:48:50;100703.69;;;18.39;34.38
47154;BME280;32907;41.412;2.164;2023-03-04T14:51:29;100708.28;;;18.44;34.36
47154;BME280;32907;41.412;2.164;2023-03-04T14:53:58;100685.53;;;18.25;34.32
47154;BME280;32907;41.412;2.164;2023-03-04T14:56:32;100699.06;;;18.35;34.41
47154;BME280;32907;41.412;2.164;2023-03-04T14:59:01;100714.28;;;18.41;34.12
47154;BME280;32907;41.412;2.164;2023-03-04T15:01:38;100710.47;;;18.42;34.27
47154;BME280;32907;41.412;2.164;2023-03-04T15:04:08;100701.25;;;18.33;33.96
47154;BME280;32907;41.412;2.164;2023-03-04T15:06:50;100647.59;;;17.99;34.06
47154;BME280;32907;41.412;2.164;2023-03-04T15:09:21;100709.94;;;18.40;33.83
47154;BME280;32907;41.412;2.164;2023-03-04T15:11:55;100713.75;;;18.39;33.72
47154;BME280;32907;41.412;2.164;2023-03-04T15:14:44;100719.69;;;18.41;33.36
47154;BME280;32907;41.412;2.164;2023-03-04T15:17:34;100700.97;;;18.34;33.24
47154;BME280;32907;41.412;2.164;2023-03-04T15:25:12;100699.63;;;18.32;33.85
47154;BME280;32907;41.412;2.164;2023-03-04T15:27:48;100713.22;;;18.32;33.83